Flight Track Log - Related Links

Times and Time Zones

All times are in EDT time to prevent confusion due to time zone crossing. See the UAL149 flight status page for this flight to view local times or setup timezone preferences in your user account.

Time Position Orientation Groundspeed Altitude Reporting Facility
EDT Latitude Longitude Course Direction KTS MPH feet Rate Location/Type
Sat 12:27:45 PM 39.8764 -104.5975 106° East 168 193 6,600  Level Denver Center
Sat 12:28:44 PM 39.8500 -104.5167 113° Southeast 242 278 8,800 1,790 Climbing Denver TRACON
Sat 12:29:49 PM 39.8186 -104.4203 113° Southeast 287 330 10,300 1,748 Climbing Denver Center
Sat 12:30:51 PM 39.7814 -104.3108 114° Southeast 330 380 12,500 2,371 Climbing Denver Center
Sat 12:31:53 PM 39.7375 -104.1836 114° Southeast 362 417 15,200 2,516 Climbing Denver Center
Sat 12:32:00 PM 39.5503 -103.8621 108° East  Level Estimated
Sat 12:32:55 PM 39.6931 -104.0603 115° Southeast 378 435 17,700  Level Denver Center
Sat 12:33:00 PM 39.4873 -103.7008 106° East  Level Estimated
Sat 12:33:57 PM 39.6478 -103.9322 115° Southeast 391 450 20,200  Level Denver Center
Sat 12:34:58 PM 39.5903 -103.7953 119° Southeast 399 459 22,600 1,881 Climbing Denver Center
Sat 12:36:00 PM 39.5448 -103.6180 106° East  Level FlightAware Approximate
Sat 12:37:02 PM 39.5158 -103.5047 106° East 433 498 26,000  Level Denver Center
Sat 12:38:04 PM 39.4750 -103.3514 109° East 445 512 27,500 1,258 Climbing Denver Center
Sat 12:39:06 PM 39.4336 -103.1928 109° East 458 527 28,600 1,016 Climbing Denver Center
Sat 12:40:08 PM 39.3886 -103.0256 109° East 485 558 29,600 1,161 Climbing Denver Center
Sat 12:41:10 PM 39.3356 -102.8272 109° East 499 574 31,000 1,548 Climbing Denver Center
Sat 12:42:12 PM 39.2911 -102.6667 110° East 498 573 32,800 1,548 Climbing Denver Center
Sat 12:43:14 PM 39.2406 -102.4814 109° East 491 565 34,200 1,452 Climbing Denver Center
Sat 12:44:16 PM 39.1981 -102.3231 109° East 489 563 35,800 1,355 Climbing Denver Center
Sat 12:45:18 PM 39.1553 -102.1711 110° East 474 545 37,000 581 Climbing Denver Center
Sat 12:46:20 PM 39.0986 -102.0006 113° Southeast 470 541 37,000  Level Denver Center
Sat 12:47:22 PM 39.0061 -101.8972 139° Southeast 463 533 37,000  Level Denver Center
Sat 12:48:24 PM 38.8956 -101.7756 139° Southeast 467 537 37,000  Level Denver Center
Sat 12:49:39 PM 38.7694 -101.6372 139° Southeast 468 539 37,000  Level Denver Center
Sat 12:50:41 PM 38.6733 -101.5333 140° Southeast 472 543 37,000  Level Denver Center
Sat 12:51:43 PM 38.5606 -101.4119 140° Southeast 475 547 37,000  Level Denver Center
Sat 12:52:45 PM 38.4636 -101.3078 140° Southeast 475 547 37,000  Level Denver Center
Sat 12:53:47 PM 38.3656 -101.2008 139° Southeast 482 555 37,000  Level Denver Center
Sat 12:54:49 PM 38.2494 -101.0764 140° Southeast 489 563 37,000  Level Denver Center
Sat 12:55:51 PM 38.1481 -100.9683 140° Southeast 493 567 37,000  Level Denver Center
Sat 12:56:53 PM 38.0294 -100.8425 140° Southeast 495 570 37,000  Level Denver Center
Sat 12:57:14 PM 37.9953 -100.8056 140° Southeast 495 570 37,000  Level Kansas City Center
Sat 12:58:16 PM 37.8956 -100.6958 139° Southeast 492 566 37,000  Level Kansas City Center
Sat 12:59:17 PM 37.7864 -100.5536 134° Southeast 497 572 37,000  Level Kansas City Center
Sat 01:00:19 PM 37.6914 -100.4339 135° Southeast 499 574 37,000  Level Kansas City Center
Sat 01:01:21 PM 37.5969 -100.3156 135° Southeast 498 573 37,000  Level Kansas City Center
Sat 01:02:22 PM 37.4864 -100.1756 135° Southeast 500 575 37,000  Level Kansas City Center
Sat 01:03:24 PM 37.3922 -100.0561 135° Southeast 501 577 37,000  Level Kansas City Center
Sat 01:04:25 PM 37.2806 -99.9175 135° Southeast 503 579 37,000  Level Kansas City Center
Sat 01:05:27 PM 37.1839 -99.7972 135° Southeast 507 583 37,000  Level Kansas City Center
Sat 01:06:28 PM 37.0881 -99.6778 135° Southeast 508 585 37,000  Level Kansas City Center
Sat 01:07:30 PM 36.9739 -99.5381 136° Southeast 511 588 37,000  Level Kansas City Center
Sat 01:08:31 PM 36.8761 -99.4194 136° Southeast 512 589 37,000  Level Kansas City Center
Sat 01:09:33 PM 36.7636 -99.2789 135° Southeast 513 590 37,000  Level Kansas City Center
Sat 01:10:34 PM 36.6650 -99.1603 136° Southeast 513 590 37,000  Level Kansas City Center
Sat 01:11:36 PM 36.5717 -99.0475 136° Southeast 518 596 37,000  Level Kansas City Center
Sat 01:12:37 PM 36.4536 -98.9050 136° Southeast 520 598 37,000  Level Kansas City Center
Sat 01:13:39 PM 36.3481 -98.7797 136° Southeast 523 602 37,000  Level Kansas City Center
Sat 01:14:41 PM 36.2439 -98.6514 135° Southeast 528 608 37,000  Level Kansas City Center
Sat 01:15:42 PM 36.1381 -98.5272 137° Southeast 526 605 37,000  Level Kansas City Center
Sat 01:16:44 PM 36.0103 -98.3747 136° Southeast 531 611 37,000  Level Kansas City Center
Sat 01:17:46 PM 35.9022 -98.2469 136° Southeast 535 616 37,000  Level Kansas City Center
Sat 01:18:47 PM 35.7944 -98.1214 137° Southeast 536 617 37,000  Level Kansas City Center
Sat 01:19:03 PM 35.7733 -98.0942 134° Southeast 534 615 37,000  Level Fort Worth Center
Sat 01:20:03 PM 35.6636 -97.9653 136° Southeast 534 615 37,000  Level Fort Worth Center
Sat 01:21:03 PM 35.5536 -97.8397 137° Southeast 539 620 37,000  Level Fort Worth Center
Sat 01:22:03 PM 35.4433 -97.7142 137° Southeast 539 620 37,000  Level Fort Worth Center
Sat 01:23:03 PM 35.3353 -97.5867 136° Southeast 539 620 37,000  Level Fort Worth Center
Sat 01:24:03 PM 35.2311 -97.4236 128° Southeast 544 626 37,000  Level Fort Worth Center
Sat 01:25:03 PM 35.1392 -97.2789 128° Southeast 549 632 37,000  Level Fort Worth Center
Sat 01:26:03 PM 35.0492 -97.1372 128° Southeast 541 623 37,000  Level Fort Worth Center
Sat 01:27:03 PM 34.9531 -96.9906 129° Southeast 536 617 37,000  Level Fort Worth Center
Sat 01:28:03 PM 34.8586 -96.8492 129° Southeast 536 617 37,000  Level Fort Worth Center
Sat 01:29:03 PM 34.7639 -96.7083 129° Southeast 536 617 37,000  Level Fort Worth Center
Sat 01:30:03 PM 34.6714 -96.5703 129° Southeast 536 617 37,000  Level Fort Worth Center
Sat 01:31:03 PM 34.5783 -96.4272 128° Southeast 536 617 37,000 100 Level Fort Worth Center
Sat 01:32:03 PM 34.4856 -96.2900 129° Southeast 536 617 37,200 450 Climbing Fort Worth Center
Sat 01:33:03 PM 34.3944 -96.1550 129° Southeast 530 610 37,900 400 Climbing Fort Worth Center
Sat 01:34:03 PM 34.3033 -96.0233 130° Southeast 525 604 38,000 50 Climbing Fort Worth Center
Sat 01:35:03 PM 34.2122 -95.8867 129° Southeast 520 598 38,000  Level Fort Worth Center
Sat 01:36:03 PM 34.1206 -95.7478 129° Southeast 520 598 38,000  Level Fort Worth Center
Sat 01:37:03 PM 34.0269 -95.6117 130° Southeast 520 598 38,000  Level Fort Worth Center
Sat 01:38:03 PM 33.9372 -95.4758 129° Southeast 520 598 38,000  Level Fort Worth Center
Sat 01:39:03 PM 33.8433 -95.3403 130° Southeast 520 598 38,000  Level Fort Worth Center
Sat 01:40:03 PM 33.7511 -95.2050 129° Southeast 520 598 38,000  Level Fort Worth Center
Sat 01:41:03 PM 33.6569 -95.0703 130° Southeast 520 598 38,000  Level Fort Worth Center
Sat 01:42:03 PM 33.5647 -94.9356 129° Southeast 520 598 38,000 100 Level Fort Worth Center
Sat 01:43:03 PM 33.4742 -94.8011 129° Southeast 520 598 38,200 300 Climbing Fort Worth Center
Sat 01:44:03 PM 33.3775 -94.6697 131° Southeast 520 598 38,600 200 Climbing Fort Worth Center
Sat 01:45:03 PM 33.2869 -94.5383 129° Southeast 520 598 38,600 150 Level Fort Worth Center
Sat 01:46:03 PM 33.2028 -94.4194 130° Southeast 520 598 38,900 200 Climbing Fort Worth Center
Sat 01:47:03 PM 33.1119 -94.2911 130° Southeast 520 598 39,000 50 Climbing Fort Worth Center
Sat 01:48:03 PM 33.0167 -94.1581 130° Southeast 520 598 39,000  Level Fort Worth Center
Sat 01:49:03 PM 32.9256 -94.0253 129° Southeast 520 598 39,000  Level Fort Worth Center
Sat 01:50:03 PM 32.8322 -93.8953 130° Southeast 520 598 39,000  Level Fort Worth Center
Sat 01:51:03 PM 32.7306 -93.7708 134° Southeast 520 598 39,000  Level Fort Worth Center
Sat 01:52:03 PM 32.6150 -93.6694 144° Southeast 510 587 39,000  Level Fort Worth Center
Sat 01:54:00 PM 32.3931 -93.4781 144° Southeast 504 580 39,000  Level Houston Center
Sat 01:55:02 PM 32.2803 -93.3803 144° Southeast 502 578 39,000  Level Houston Center
Sat 01:56:04 PM 32.1675 -93.2817 143° Southeast 503 579 39,000  Level Houston Center
Sat 01:57:06 PM 32.0542 -93.1847 144° Southeast 502 578 39,000  Level Houston Center
Sat 01:58:07 PM 31.9403 -93.0867 144° Southeast 506 582 39,000  Level Houston Center
Sat 01:59:09 PM 31.8044 -92.9678 143° Southeast 506 582 39,000  Level Houston Center
Sat 02:00:11 PM 31.7042 -92.8822 144° Southeast 507 583 39,000  Level Houston Center
Sat 02:01:13 PM 31.5894 -92.7839 144° Southeast 510 587 39,000 -48 Level Houston Center
Sat 02:02:15 PM 31.4528 -92.6672 144° Southeast 507 583 38,900 -48 Descending Houston Center
Sat 02:03:17 PM 31.3372 -92.5692 144° Southeast 510 587 38,900 48 Level Houston Center
Sat 02:04:19 PM 31.2272 -92.4667 141° Southeast 506 582 39,000 48 Climbing Houston Center
Sat 02:05:21 PM 31.1261 -92.3461 134° Southeast 512 589 39,000  Level Houston Center
Sat 02:06:23 PM 31.0264 -92.2283 135° Southeast 513 590 39,000  Level Houston Center
Sat 02:07:24 PM 30.9267 -92.1094 134° Southeast 514 592 39,000  Level Houston Center
Sat 02:08:26 PM 30.8081 -91.9692 135° Southeast 508 585 39,000  Level Houston Center
Sat 02:09:28 PM 30.7086 -91.8533 135° Southeast 507 583 39,000  Level Houston Center
Sat 02:10:30 PM 30.6097 -91.7381 135° Southeast 504 580 39,000  Level Houston Center
Sat 02:11:32 PM 30.5117 -91.6231 135° Southeast 502 578 39,000  Level Houston Center
Sat 02:12:34 PM 30.4167 -91.4819 128° Southeast 508 585 39,000  Level Houston Center
Sat 02:13:36 PM 30.3439 -91.3425 121° Southeast 508 585 39,000  Level Houston Center
Sat 02:14:38 PM 30.2689 -91.2042 122° Southeast 509 586 39,000  Level Houston Center
Sat 02:15:40 PM 30.1950 -91.0642 121° Southeast 512 589 39,000  Level Houston Center
Sat 02:16:42 PM 30.1189 -90.9264 123° Southeast 511 588 39,000  Level Houston Center
Sat 02:17:44 PM 30.0439 -90.7892 122° Southeast 510 587 39,000 -48 Level Houston Center
Sat 02:18:46 PM 29.9553 -90.6236 122° Southeast 508 585 38,900  Descending Houston Center
Sat 02:19:48 PM 29.8806 -90.4869 122° Southeast 507 583 39,000  Climbing Houston Center
Sat 02:20:50 PM 29.8050 -90.3514 123° Southeast 506 582 38,900  Descending Houston Center
Sat 02:21:52 PM 29.7306 -90.2153 122° Southeast 505 581 39,000 48 Climbing Houston Center
Sat 02:22:54 PM 29.6558 -90.0794 122° Southeast 506 582 39,000  Level Houston Center
Sat 02:23:56 PM 29.5658 -89.9181 123° Southeast 505 581 39,000 -48 Level Houston Center
Sat 02:24:58 PM 29.5025 -89.7767 117° Southeast 502 578 38,900  Descending Houston Center
Sat 02:26:00 PM 29.4592 -89.6233 108° East 507 583 39,000 48 Climbing Houston Center
Sat 02:27:02 PM 29.4158 -89.4689 108° East 512 589 39,000  Level Houston Center
Sat 02:28:04 PM 29.3725 -89.3172 108° East 505 581 39,000 -48 Level Houston Center
Sat 02:29:06 PM 29.3206 -89.1361 108° East 501 577 38,900  Descending Houston Center
Sat 02:30:08 PM 29.2772 -88.9850 108° East 501 577 39,000 48 Climbing Houston Center
Sat 02:31:10 PM 29.2322 -88.8331 109° East 504 580 39,000  Level Houston Center
Sat 02:32:12 PM 29.1883 -88.6792 108° East 510 587 39,000  Level Houston Center
Sat 02:33:14 PM 29.1436 -88.5272 109° East 507 583 39,000  Level Houston Center
Sat 02:34:16 PM 29.0981 -88.3758 109° East 505 581 39,000  Level Houston Center
Sat 02:35:18 PM 29.0439 -88.1919 109° East 511 588 39,000  Level Houston Center
Sat 02:36:20 PM 29.0047 -88.0542 108° East 508 585 39,000 -48 Level Houston Center
Sat 02:37:23 PM 28.9742 -87.8967 102° East 510 587 38,900 -48 Descending Houston Center
Sat 02:38:25 PM 28.9350 -87.7072 103° East 512 589 38,900 48 Level Houston Center
Sat 02:39:27 PM 28.9025 -87.5503 103° East 511 588 39,000 48 Climbing Houston Center
Sat 02:40:29 PM 28.8706 -87.3939 103° East 509 586 39,000  Level Houston Center
Sat 02:40:55 PM 28.8558 -87.3275 104° East 489 563 39,000 -70 Level Jacksonville Center
Sat 02:41:55 PM 28.8236 -87.1719 103° East 496 571 38,900  Descending Jacksonville Center
Sat 02:42:55 PM 28.7950 -87.0217 102° East 496 571 39,000 50 Climbing Jacksonville Center
Sat 02:43:55 PM 28.7564 -86.8639 106° East 496 571 39,000  Level Jacksonville Center
Sat 02:44:55 PM 28.7275 -86.7089 102° East 501 577 39,000  Level Jacksonville Center
Sat 02:45:55 PM 28.6925 -86.5536 104° East 501 577 39,000  Level Jacksonville Center
Sat 02:46:55 PM 28.6594 -86.3939 103° East 496 571 39,000  Level Jacksonville Center
Sat 02:47:55 PM 28.6239 -86.2367 104° East 505 581 39,000 -50 Level Jacksonville Center
Sat 02:48:55 PM 28.5883 -86.0817 105° East 505 581 38,900 -300 Descending Jacksonville Center
Sat 02:49:55 PM 28.5544 -85.9294 104° East 505 581 38,400 -700 Descending Jacksonville Center
Sat 02:50:55 PM 28.5203 -85.7725 104° East 505 581 37,500 -950 Descending Jacksonville Center
Sat 02:51:55 PM 28.4842 -85.6133 104° East 505 581 36,500 -1,050 Descending Jacksonville Center
Sat 02:52:55 PM 28.4461 -85.4422 104° East 511 588 35,400 -1,050 Descending Jacksonville Center
Sat 02:53:55 PM 28.4114 -85.2903 105° East 511 588 34,400 -1,400 Descending Jacksonville Center
Sat 02:54:55 PM 28.3786 -85.1386 104° East 506 582 32,600 -2,050 Descending Jacksonville Center
Sat 02:55:55 PM 28.3436 -84.9939 105° East 492 566 30,300 -2,103 Descending Jacksonville Center
Sat 02:58:09 PM 28.2769 -84.6850 104° East 479 551 25,800 -1,670 Descending Miami Center
Sat 02:59:09 PM 28.2444 -84.5508 105° East 454 522 24,900 -400 Descending Miami Center
Sat 03:00:09 PM 28.2064 -84.4047 106° East 438 504 25,000 50 Climbing Miami Center
Sat 03:01:09 PM 28.1794 -84.2831 104° East 438 504 25,000  Level Miami Center
Sat 03:02:09 PM 28.1433 -84.1325 105° East 450 518 25,000 -400 Level Miami Center
Sat 03:03:09 PM 28.1200 -84.0158 103° East 445 512 24,200 -1,450 Descending Miami Center
Sat 03:04:09 PM 28.0847 -83.8867 107° East 434 499 22,100 -2,050 Descending Miami Center
Sat 03:05:09 PM 28.0556 -83.7578 104° East 428 493 20,100 -2,050 Descending Miami Center
Sat 03:06:09 PM 28.0281 -83.6364 104° East 417 480 18,000 -2,050 Descending Miami Center
Sat 03:07:09 PM 27.9981 -83.5172 106° East 401 461 16,000 -2,000 Descending Miami Center
Sat 03:08:09 PM 27.9739 -83.4122 105° East 389 448 14,000 -1,950 Descending Miami Center
Sat 03:09:09 PM 27.9433 -83.3003 107° East 381 438 12,100 -2,000 Descending Miami Center
Sat 03:10:09 PM 27.9203 -83.1650 101° East 371 427 10,000 -1,050 Descending Miami Center
Sat 03:11:09 PM 27.9489 -83.0797 69° East 340 391 10,000  Level Miami Center
Sat 03:12:09 PM 28.0306 -83.0231 31° Northeast 294 338 10,000 -150 Level Miami Center
Sat 03:13:09 PM 28.0961 -82.9561 42° Northeast 301 346 9,700 -800 Descending Miami Center
Sat 03:13:39 PM 28.1333 -82.9167 43° Northeast 303 349 8,800 -1,533 Descending Tampa TRACON
Sat 03:14:39 PM 28.1167 -82.8333 103° East 294 338 7,400 -900 Descending Tampa TRACON
Sat 03:15:39 PM 28.0667 -82.7500 124° Southeast 292 336 7,000 -567 Descending Tampa TRACON
Sat 03:16:46 PM 28.0333 -82.6500 111° Southeast 291 335 6,200 -992 Descending Tampa TRACON
Sat 03:17:40 PM 27.9667 -82.6167 156° South 279 321 5,000 -789 Descending Tampa TRACON
Sat 03:18:40 PM 27.9000 -82.6167 180° South 241 277 4,700 -850 Descending Tampa TRACON
Sat 03:19:40 PM 27.8333 -82.6167 180° South 222 255 3,300 -1,050 Descending Tampa TRACON
Sat 03:20:40 PM 27.7833 -82.6167 180° South 235 270 2,600 -350 Descending Tampa TRACON
Sat 03:21:40 PM 27.8000 -82.5500 74° East 213 245 2,600  Level Tampa TRACON

Login

Don't have an account? Register now (free) for customized features, flight alerts, and more!